Caryville, FL

10:05 AM CST on February 28, 2017 (GMT -0600)
Holmes County High School WeatherSTEM | | Change Station

Elev 157 ft 30.79 °N, 85.69 °W | Updated 4 minutes ago

Mostly Cloudy
Mostly Cloudy
71.8 °F
Feels Like 73 °F
N
3.0
Wind Variable Wind from South

Today
High -- | Low -- °F
--% Chance of Precip.
Yesterday
High -- | Low -- °F
Precip. -- in
Pressure 30.14 in
Visibility 10.0 miles
Clouds Overcast 1500 ft
Heat Index 73 °F
Dew Point 65 °F
Humidity 78%
Rainfall 0.00 in
Snow Depth Not available.
6:10 AM 5:41 PM
Waxing Crescent, 5% visible
METAR K1J0 281458Z AUTO 00000KT 10SM OVC015 18/16 A3026 RMK AO2 SLP206 T01830161 50009
Pressure 30.14 in
Visibility 10.0 miles
Clouds Overcast 1500 ft
Heat Index 73 °F
Dew Point 65 °F
Humidity 78%
Rainfall 0.00 in
Snow Depth Not available.
6:10 AM 5:41 PM
Waxing Crescent, 5% visible
METAR K1J0 281458Z AUTO 00000KT 10SM OVC015 18/16 A3026 RMK AO2 SLP206 T01830161 50009

Get Your Daily Forecast Email!

Thanks for signing up!

Be on the lookout for a verification email in your inbox.

You'll start receiving the daily forecast at 8 AM.

×

10-Day Weather Forecast

Almanac

Astronomy

Feb. 28, 2017 Rise Set
Actual Time
Civil Twilight
Nautical Twilight
Astronomical Twilight
Moon
Length of Visible Light
Length of Day
Tomorrow will be .
, % of the Moon is Illuminated

Today's Extremes

State Highs State Lows

Community

WunderPhotos

Upload Photos

1,962,540 photos uploaded!

WunderBlog® & News

Nearby

Air Quality

  Air Quality AQ Index Pollutant
Not available.

Snow Depth

Station Depth Elevation

Earthquake Activity

City Distance Mag. Time & Date
Minimum magnitude displayed is 2.5.

Coastal Water Temperatures

Place Temperature

Stations

Nearby Weather Stations

Station Location Temp. Windchill Dew Point Humidity Wind Precip. Elev Updated Type
                   

Watches & Warnings

There are currently no watches in effect.